createdAt,value
2018-07-16T00:00:37.141Z,33.4
2018-07-16T00:01:39.597Z,33.4
2018-07-16T00:02:41.477Z,33.5
2018-07-16T00:03:43.919Z,33.4
2018-07-16T00:04:46.368Z,33.4
2018-07-16T00:05:48.831Z,33.4
2018-07-16T00:06:51.290Z,33.6
2018-07-16T00:07:53.449Z,33.5
2018-07-16T00:08:55.358Z,33.4
2018-07-16T00:09:57.547Z,33.5
2018-07-16T00:10:59.722Z,33.5
2018-07-16T00:12:01.878Z,33.5
2018-07-16T00:13:03.793Z,33.5
2018-07-16T00:14:05.975Z,33.4
2018-07-16T00:15:08.420Z,33.4
2018-07-16T00:16:10.612Z,33.5
2018-07-16T00:17:12.496Z,33.4
2018-07-16T00:18:14.681Z,33.5
2018-07-16T00:19:16.888Z,33.6
2018-07-16T00:20:19.075Z,33.5
2018-07-16T00:21:21.263Z,33.5
2018-07-16T00:22:23.724Z,33.5
2018-07-16T00:23:25.900Z,33.5
2018-07-16T00:24:28.062Z,33.5
2018-07-16T00:25:30.511Z,33.5
2018-07-16T00:26:32.693Z,33.5
2018-07-16T00:27:34.342Z,33.5
2018-07-16T00:28:36.251Z,33.6
2018-07-16T00:29:38.172Z,33.6
2018-07-16T00:30:40.623Z,33.5
2018-07-16T00:31:43.077Z,33.5
2018-07-16T00:32:45.257Z,33.6
2018-07-16T00:33:47.438Z,33.5
2018-07-16T00:34:49.599Z,33.5
2018-07-16T00:35:51.480Z,33.5
2018-07-16T00:36:53.407Z,33.4
2018-07-16T00:37:55.585Z,33.5
2018-07-16T00:38:58.027Z,33.5
2018-07-16T00:39:59.981Z,33.5
2018-07-16T00:41:02.145Z,33.5
2018-07-16T00:42:04.351Z,33.4
2018-07-16T00:43:06.538Z,33.5
2018-07-16T00:44:08.727Z,33.5
2018-07-16T00:45:11.168Z,33.7
2018-07-16T00:46:13.605Z,33.6
2018-07-16T00:47:15.775Z,33.6
2018-07-16T00:48:17.941Z,33.5
2018-07-16T00:49:20.387Z,33.6
2018-07-16T00:50:22.838Z,33.5
2018-07-16T00:51:24.773Z,33.5
2018-07-16T00:52:26.648Z,33.6
2018-07-16T00:53:29.099Z,33.6
2018-07-16T00:54:31.571Z,33.4
2018-07-16T00:55:33.488Z,33.6
2018-07-16T00:56:35.940Z,33.5
2018-07-16T00:57:38.096Z,33.5
2018-07-16T00:58:40.556Z,33.6
2018-07-16T00:59:42.760Z,33.5
2018-07-16T01:00:45.200Z,33.6
2018-07-16T01:01:47.120Z,33.6
2018-07-16T01:02:49.289Z,33.6
2018-07-16T01:03:51.735Z,33.5
2018-07-16T01:04:53.935Z,33.5
2018-07-16T01:05:56.087Z,33.6
2018-07-16T01:06:58.286Z,33.5
2018-07-16T01:08:00.458Z,33.5
2018-07-16T01:09:02.900Z,33.6
2018-07-16T01:10:05.389Z,33.6
2018-07-16T01:11:07.836Z,33.6
2018-07-16T01:12:09.743Z,33.6
2018-07-16T01:13:12.181Z,33.5
2018-07-16T01:14:14.640Z,33.5
2018-07-16T01:15:16.814Z,33.7
2018-07-16T01:16:19.262Z,33.6
2018-07-16T01:17:21.710Z,33.7
2018-07-16T01:18:23.048Z,33.6
2018-07-16T01:19:24.943Z,33.6
2018-07-16T01:20:27.395Z,33.7
2018-07-16T01:21:29.571Z,33.5
2018-07-16T01:22:32.031Z,33.6
2018-07-16T01:23:34.214Z,33.6
2018-07-16T01:24:36.664Z,33.6
2018-07-16T01:25:38.880Z,33.6
2018-07-16T01:26:41.330Z,33.5
2018-07-16T01:27:43.249Z,33.6
2018-07-16T01:28:45.690Z,33.6
2018-07-16T01:29:47.864Z,33.7
2018-07-16T01:30:50.045Z,33.7
2018-07-16T01:31:51.942Z,33.7
2018-07-16T01:32:53.867Z,33.5
2018-07-16T01:33:56.354Z,33.6
2018-07-16T01:35:13.470Z,33.6
2018-07-16T01:36:15.905Z,33.6
2018-07-16T01:37:18.080Z,33.6
2018-07-16T01:38:20.276Z,33.7
2018-07-16T01:39:22.726Z,33.5
2018-07-16T01:40:25.176Z,33.7
2018-07-16T01:41:27.067Z,33.6
2018-07-16T01:42:29.304Z,33.7
2018-07-16T01:43:31.161Z,33.8
2018-07-16T01:44:33.334Z,33.6
2018-07-16T01:45:35.217Z,33.6
2018-07-16T01:46:37.667Z,33.6
2018-07-16T01:47:39.548Z,33.6
2018-07-16T01:48:41.739Z,33.7
2018-07-16T01:49:43.893Z,33.6
2018-07-16T01:50:45.783Z,33.6
2018-07-16T01:51:48.224Z,33.7
2018-07-16T01:52:50.676Z,33.6
2018-07-16T01:53:53.124Z,33.6
2018-07-16T01:54:55.566Z,33.7
2018-07-16T01:55:58.015Z,33.6
2018-07-16T01:57:00.465Z,33.7
2018-07-16T01:58:02.679Z,33.7
2018-07-16T01:59:04.845Z,33.6
2018-07-16T02:00:07.289Z,33.6
2018-07-16T02:01:09.523Z,33.8
2018-07-16T02:02:11.700Z,33.7
2018-07-16T02:03:13.872Z,33.7
2018-07-16T02:04:16.020Z,33.6
2018-07-16T02:05:17.925Z,33.8
2018-07-16T02:06:20.376Z,33.6
2018-07-16T02:07:22.524Z,33.7
2018-07-16T02:08:24.711Z,33.7
2018-07-16T02:09:27.149Z,33.7
2018-07-16T02:10:29.319Z,33.6
2018-07-16T02:11:31.758Z,33.6
2018-07-16T02:12:33.950Z,33.7
2018-07-16T02:13:35.865Z,33.7
2018-07-16T02:14:38.026Z,33.6
2018-07-16T02:15:39.927Z,33.7
2018-07-16T02:16:41.579Z,33.6
2018-07-16T02:17:44.025Z,33.7
2018-07-16T02:18:46.467Z,33.6
2018-07-16T02:19:48.905Z,33.7
2018-07-16T02:20:51.081Z,33.8
2018-07-16T02:21:52.700Z,33.7
2018-07-16T02:22:55.149Z,33.7
2018-07-16T02:23:57.604Z,33.7
2018-07-16T02:24:59.790Z,33.8
2018-07-16T02:26:02.226Z,33.7
2018-07-16T02:27:04.397Z,33.7
2018-07-16T02:28:06.287Z,33.7
2018-07-16T02:29:08.204Z,33.6
2018-07-16T02:30:10.653Z,33.7
2018-07-16T02:31:12.829Z,33.8
2018-07-16T02:32:15.008Z,33.7
2018-07-16T02:33:17.476Z,33.6
2018-07-16T02:34:19.360Z,33.7
2018-07-16T02:35:21.827Z,33.7
2018-07-16T02:36:23.995Z,33.6
2018-07-16T02:37:26.160Z,33.6
2018-07-16T02:38:28.318Z,33.6
2018-07-16T02:39:30.498Z,33.7
2018-07-16T02:40:32.957Z,33.5
2018-07-16T02:41:35.407Z,33.6
2018-07-16T02:42:37.581Z,33.7
2018-07-16T02:43:39.773Z,33.6
2018-07-16T02:44:41.922Z,33.7
2018-07-16T02:45:43.567Z,33.6
2018-07-16T02:46:46.024Z,33.7
2018-07-16T02:47:48.222Z,33.6
2018-07-16T02:48:50.663Z,33.7
2018-07-16T02:49:53.110Z,33.6
2018-07-16T02:50:55.567Z,33.6
2018-07-16T02:51:58.024Z,33.7
2018-07-16T02:53:00.172Z,33.7
2018-07-16T02:54:02.623Z,33.7
2018-07-16T02:55:04.527Z,33.6
2018-07-16T02:56:06.972Z,33.6
2018-07-16T02:57:09.125Z,33.6
2018-07-16T02:58:11.583Z,33.6
2018-07-16T02:59:14.029Z,33.6
2018-07-16T03:00:16.481Z,33.6
2018-07-16T03:01:18.636Z,33.6
2018-07-16T03:02:21.093Z,33.7
2018-07-16T03:03:22.976Z,33.7
2018-07-16T03:04:25.150Z,33.6
2018-07-16T03:05:27.341Z,33.6
2018-07-16T03:06:29.786Z,33.7
2018-07-16T03:07:32.028Z,33.4
2018-07-16T03:08:34.209Z,33.5
2018-07-16T03:09:36.710Z,33.6
2018-07-16T03:10:38.585Z,33.6
2018-07-16T03:11:41.052Z,33.6
2018-07-16T03:12:43.520Z,33.5
2018-07-16T03:13:45.957Z,33.5
2018-07-16T03:14:48.417Z,33.5
2018-07-16T03:15:50.276Z,33.4
2018-07-16T03:16:52.162Z,33.5
2018-07-16T03:17:54.617Z,33.5
2018-07-16T03:18:56.837Z,33.4
2018-07-16T03:19:59.030Z,33.5
2018-07-16T03:21:01.199Z,33.5
2018-07-16T03:22:03.398Z,33.5
2018-07-16T03:23:05.575Z,33.3
2018-07-16T03:24:08.028Z,33.4
2018-07-16T03:25:10.185Z,33.5
2018-07-16T03:26:12.357Z,33.4
2018-07-16T03:27:14.264Z,33.3
2018-07-16T03:28:15.883Z,33.5
2018-07-16T03:29:17.759Z,33.3
2018-07-16T03:30:20.209Z,33.4
2018-07-16T03:31:22.657Z,33.4
2018-07-16T03:32:24.544Z,33.4
2018-07-16T03:33:26.729Z,33.4
2018-07-16T03:34:28.882Z,33.4
2018-07-16T03:35:30.785Z,33.3
2018-07-16T03:36:32.946Z,33.3
2018-07-16T03:37:35.138Z,33.3
2018-07-16T03:38:37.014Z,33.5
2018-07-16T03:39:39.461Z,33.3
2018-07-16T03:40:41.898Z,33.2
2018-07-16T03:41:44.353Z,33.4
2018-07-16T03:42:46.540Z,33.3
2018-07-16T03:43:48.725Z,33.3
2018-07-16T03:44:51.168Z,33.3
2018-07-16T03:45:53.616Z,33.4
2018-07-16T03:46:56.055Z,33.2
2018-07-16T03:47:58.341Z,33.4
2018-07-16T03:49:00.968Z,33.3
2018-07-16T03:50:02.898Z,33.3
2018-07-16T03:51:04.507Z,33.2
2018-07-16T03:52:06.668Z,33.3
2018-07-16T03:53:09.128Z,33.2
2018-07-16T03:54:11.304Z,33.1
2018-07-16T03:55:13.483Z,33.3
2018-07-16T03:56:15.945Z,33.4
2018-07-16T03:57:18.088Z,33.3
2018-07-16T03:58:20.002Z,33.3
2018-07-16T03:59:22.166Z,33.2
2018-07-16T04:00:24.619Z,33.2
2018-07-16T04:01:26.539Z,33.1
2018-07-16T04:02:28.494Z,33.2
2018-07-16T04:03:30.667Z,33.2
2018-07-16T04:04:32.837Z,33.2
2018-07-16T04:05:34.996Z,33.3
2018-07-16T04:06:37.446Z,33.4
2018-07-16T04:07:39.901Z,33.4
2018-07-16T04:08:42.351Z,33.3
2018-07-16T04:09:44.788Z,33.2
2018-07-16T04:10:46.717Z,33.1
2018-07-16T04:11:48.605Z,33
2018-07-16T04:12:50.784Z,33.3
2018-07-16T04:13:52.960Z,33.2
2018-07-16T04:14:55.409Z,33.2
2018-07-16T04:15:57.577Z,33.2
2018-07-16T04:16:59.751Z,33.3
2018-07-16T04:18:02.215Z,33.3
2018-07-16T04:19:04.658Z,33.3
2018-07-16T04:20:07.111Z,33.3
2018-07-16T04:21:09.023Z,33.3
2018-07-16T04:22:11.476Z,33.2
2018-07-16T04:23:13.400Z,33.3
2018-07-16T04:24:15.556Z,33.2
2018-07-16T04:25:18.005Z,33.3
2018-07-16T04:26:20.447Z,33.1
2018-07-16T04:27:22.353Z,33.1
2018-07-16T04:28:24.530Z,33.2
2018-07-16T04:29:26.976Z,33.2
2018-07-16T04:30:29.128Z,33.1
2018-07-16T04:31:31.299Z,33.1
2018-07-16T04:32:33.460Z,33.3
2018-07-16T04:33:35.924Z,33.2
2018-07-16T04:34:38.380Z,33.2
2018-07-16T04:35:40.826Z,33.3
2018-07-16T04:36:42.725Z,33.1
2018-07-16T04:37:44.885Z,33
2018-07-16T04:38:47.330Z,33.2
2018-07-16T04:39:49.856Z,33.2
2018-07-16T04:40:52.386Z,33.1
2018-07-16T04:41:54.294Z,33.1
2018-07-16T04:42:56.738Z,33.2
2018-07-16T04:43:59.180Z,33.2
2018-07-16T04:45:01.624Z,33.1
2018-07-16T04:46:04.056Z,33.1
2018-07-16T04:47:06.505Z,33.1
2018-07-16T04:48:08.955Z,33.1
2018-07-16T04:49:11.135Z,33.1
2018-07-16T04:50:13.049Z,33
2018-07-16T04:51:15.232Z,33.1
2018-07-16T04:52:17.164Z,33.3
2018-07-16T04:53:19.606Z,33.1
2018-07-16T04:54:21.510Z,33.1
2018-07-16T04:55:23.674Z,33.1
2018-07-16T04:56:25.858Z,33
2018-07-16T04:57:27.759Z,33.1
2018-07-16T04:58:29.942Z,33.1
2018-07-16T04:59:32.389Z,33.2
2018-07-16T05:00:34.575Z,33.1
2018-07-16T05:01:36.459Z,33.1
2018-07-16T05:02:38.631Z,33
2018-07-16T05:03:40.806Z,33.1
2018-07-16T05:04:43.254Z,33.1
2018-07-16T05:05:45.701Z,33.1
2018-07-16T05:06:47.884Z,33.1
2018-07-16T05:07:50.335Z,33.1
2018-07-16T05:08:52.789Z,33.1
2018-07-16T05:09:54.926Z,33.2
2018-07-16T05:10:57.115Z,33.2
2018-07-16T05:11:59.305Z,33.1
2018-07-16T05:13:01.475Z,33.1
2018-07-16T05:14:03.921Z,33.1
2018-07-16T05:15:06.376Z,33.1
2018-07-16T05:16:08.839Z,33
2018-07-16T05:17:11.277Z,33
2018-07-16T05:18:13.550Z,33.2
2018-07-16T05:19:16.396Z,33
2018-07-16T05:20:18.291Z,33.1
2018-07-16T05:21:20.466Z,33
2018-07-16T05:22:22.628Z,33.1
2018-07-16T05:23:24.781Z,33
2018-07-16T05:24:27.227Z,33
2018-07-16T05:25:29.679Z,33.1
2018-07-16T05:26:32.147Z,33
2018-07-16T05:27:34.586Z,33
2018-07-16T05:28:36.756Z,33.1
2018-07-16T05:29:38.650Z,33
2018-07-16T05:30:40.816Z,33
2018-07-16T05:31:43.356Z,33
2018-07-16T05:32:46.545Z,33
2018-07-16T05:33:49.756Z,33.1
2018-07-16T05:34:52.217Z,33.1
2018-07-16T05:35:54.396Z,33.1
2018-07-16T05:36:56.578Z,33
2018-07-16T05:37:58.458Z,33
2018-07-16T05:39:00.640Z,32.9
2018-07-16T05:40:02.537Z,33.1
2018-07-16T05:41:04.709Z,33
2018-07-16T05:42:06.882Z,33
2018-07-16T05:43:09.030Z,33
2018-07-16T05:44:11.487Z,33
2018-07-16T05:45:13.659Z,33
2018-07-16T05:46:15.554Z,33
2018-07-16T05:47:18.022Z,32.9
2018-07-16T05:48:20.465Z,33
2018-07-16T05:49:21.823Z,33.1
2018-07-16T05:50:24.025Z,33
2018-07-16T05:51:26.468Z,33
2018-07-16T05:52:28.906Z,33.1
2018-07-16T05:53:31.077Z,33
2018-07-16T05:54:33.276Z,33
2018-07-16T05:55:35.736Z,33
2018-07-16T05:56:37.936Z,33.1
2018-07-16T05:57:40.386Z,33.1
2018-07-16T05:58:42.845Z,32.9
2018-07-16T05:59:45.296Z,33
2018-07-16T06:00:47.744Z,33
2018-07-16T06:01:50.195Z,32.9
2018-07-16T06:02:52.110Z,32.9
2018-07-16T06:03:54.563Z,33
2018-07-16T06:04:56.431Z,33
2018-07-16T06:05:58.589Z,33
2018-07-16T06:07:01.033Z,33
2018-07-16T06:08:03.237Z,33
2018-07-16T06:09:05.748Z,32.9
2018-07-16T06:10:07.937Z,33.1
2018-07-16T06:11:10.395Z,33
2018-07-16T06:12:12.307Z,33
2018-07-16T06:13:14.477Z,33.1
2018-07-16T06:14:16.929Z,33
2018-07-16T06:15:19.392Z,32.9
2018-07-16T06:16:21.853Z,33
2018-07-16T06:17:24.038Z,33
2018-07-16T06:18:26.516Z,32.8
2018-07-16T06:19:28.705Z,33
2018-07-16T06:20:31.151Z,32.9
2018-07-16T06:21:33.323Z,33
2018-07-16T06:22:35.779Z,32.9
2018-07-16T06:23:37.957Z,33
2018-07-16T06:24:39.843Z,33
2018-07-16T06:25:42.032Z,33.1
2018-07-16T06:26:44.492Z,33
2018-07-16T06:27:46.952Z,33.1
2018-07-16T06:28:48.833Z,33
2018-07-16T06:29:50.705Z,33
2018-07-16T06:30:53.153Z,32.9
2018-07-16T06:31:55.598Z,33
2018-07-16T06:32:58.060Z,33.1
2018-07-16T06:34:00.268Z,33
2018-07-16T06:35:02.440Z,33
2018-07-16T06:36:04.320Z,33
2018-07-16T06:37:06.760Z,33.1
2018-07-16T06:38:08.938Z,33
2018-07-16T06:39:11.130Z,33.1
2018-07-16T06:40:13.943Z,33
2018-07-16T06:41:17.188Z,33
2018-07-16T06:42:20.964Z,32.9
2018-07-16T06:43:23.141Z,33
2018-07-16T06:44:25.587Z,33.1
2018-07-16T06:45:28.041Z,33.1
2018-07-16T06:46:29.912Z,33
2018-07-16T06:47:32.368Z,33
2018-07-16T06:48:33.991Z,33.1
2018-07-16T06:49:36.158Z,33
2018-07-16T06:50:38.067Z,33
2018-07-16T06:51:40.519Z,33
2018-07-16T06:52:42.700Z,33.1
2018-07-16T06:53:44.591Z,33
2018-07-16T06:54:46.738Z,33.1
2018-07-16T06:55:49.196Z,33
2018-07-16T06:56:51.133Z,33
2018-07-16T06:57:53.577Z,33.1
2018-07-16T06:58:55.758Z,33.1
2018-07-16T06:59:58.207Z,33
2018-07-16T07:01:00.388Z,33
2018-07-16T07:02:02.569Z,33.1
2018-07-16T07:03:05.029Z,33
2018-07-16T07:04:07.476Z,32.9
2018-07-16T07:05:09.668Z,33
2018-07-16T07:06:12.117Z,33
2018-07-16T07:07:14.564Z,33
2018-07-16T07:08:17.013Z,33
2018-07-16T07:09:19.469Z,33.2
2018-07-16T07:10:21.919Z,33
2018-07-16T07:11:24.078Z,33.1
2018-07-16T07:12:26.258Z,33
2018-07-16T07:13:28.704Z,33
2018-07-16T07:14:30.855Z,33.1
2018-07-16T07:15:32.755Z,33
2018-07-16T07:16:34.908Z,33.1
2018-07-16T07:17:37.109Z,33.1
2018-07-16T07:18:39.552Z,33.1
2018-07-16T07:19:41.737Z,32.9
2018-07-16T07:20:43.927Z,33
2018-07-16T07:21:46.370Z,33.1
2018-07-16T07:22:48.827Z,33.1
2018-07-16T07:23:51.267Z,33.1
2018-07-16T07:24:53.719Z,33
2018-07-16T07:25:55.625Z,33.1
2018-07-16T07:26:58.076Z,33.1
2018-07-16T07:28:00.237Z,33
2018-07-16T07:29:02.116Z,33
2018-07-16T07:30:04.306Z,33.1
2018-07-16T07:31:06.458Z,33
2018-07-16T07:32:08.659Z,33.1
2018-07-16T07:33:10.797Z,33
2018-07-16T07:34:13.238Z,33
2018-07-16T07:35:15.892Z,32.9
2018-07-16T07:36:17.984Z,33
2018-07-16T07:37:20.146Z,32.9
2018-07-16T07:38:22.327Z,33.1
2018-07-16T07:39:24.239Z,33.1
2018-07-16T07:40:26.389Z,33
2018-07-16T07:41:28.835Z,33.1
2018-07-16T07:42:30.758Z,33.1
2018-07-16T07:43:33.208Z,33
2018-07-16T07:44:35.648Z,33
2018-07-16T07:45:38.097Z,32.9
2018-07-16T07:46:40.273Z,33
2018-07-16T07:47:42.561Z,33
2018-07-16T07:48:44.693Z,33
2018-07-16T07:49:46.906Z,33
2018-07-16T07:50:49.092Z,33.1
2018-07-16T07:51:51.281Z,33.1
2018-07-16T07:52:53.470Z,33
2018-07-16T07:53:55.662Z,33.1
2018-07-16T07:54:58.506Z,32.9
2018-07-16T07:56:01.015Z,33
2018-07-16T07:57:03.464Z,33.1
2018-07-16T07:58:05.931Z,33.1
2018-07-16T07:59:08.100Z,33.1
2018-07-16T08:00:10.551Z,33
2018-07-16T08:01:12.453Z,32.9
2018-07-16T08:02:14.642Z,33
2018-07-16T08:03:17.226Z,33
2018-07-16T08:04:19.519Z,33
2018-07-16T08:05:21.408Z,33
2018-07-16T08:06:23.858Z,33.1
2018-07-16T08:07:26.308Z,33.1
2018-07-16T08:08:28.761Z,33.1
2018-07-16T08:09:31.217Z,33.1
2018-07-16T08:10:33.561Z,33
2018-07-16T08:11:35.172Z,33.1
2018-07-16T08:12:39.719Z,33.1
2018-07-16T08:13:41.957Z,33.1
2018-07-16T08:14:43.586Z,33
2018-07-16T08:15:45.771Z,33
2018-07-16T08:16:48.240Z,33
2018-07-16T08:17:50.168Z,32.9
2018-07-16T08:18:51.840Z,33
2018-07-16T08:19:54.303Z,33
2018-07-16T08:20:56.874Z,32.9
2018-07-16T08:22:00.108Z,33
2018-07-16T08:23:03.675Z,33
2018-07-16T08:24:07.508Z,33
2018-07-16T08:25:09.450Z,33.1
2018-07-16T08:26:11.645Z,33
2018-07-16T08:27:13.831Z,33
2018-07-16T08:28:16.418Z,33
2018-07-16T08:29:19.028Z,33.1
2018-07-16T08:30:21.492Z,32.9
2018-07-16T08:31:23.675Z,33
2018-07-16T08:32:25.863Z,33.1
2018-07-16T08:33:29.014Z,33
2018-07-16T08:34:32.598Z,33
2018-07-16T08:35:37.404Z,33
2018-07-16T08:36:39.353Z,33
2018-07-16T08:37:41.565Z,32.9
2018-07-16T08:38:43.798Z,33
2018-07-16T08:39:46.002Z,33
2018-07-16T08:40:48.450Z,32.9
2018-07-16T08:41:50.621Z,33.1
2018-07-16T08:42:52.824Z,33
2018-07-16T08:43:55.289Z,33
2018-07-16T08:44:58.048Z,33.1
2018-07-16T08:46:00.477Z,33
2018-07-16T08:47:02.917Z,33
2018-07-16T08:48:05.367Z,33
2018-07-16T08:49:07.262Z,33
2018-07-16T08:50:09.410Z,33
2018-07-16T08:51:11.869Z,32.9
2018-07-16T08:52:14.317Z,33
2018-07-16T08:53:16.494Z,33
2018-07-16T08:54:18.944Z,32.9
2018-07-16T08:55:21.134Z,33
2018-07-16T08:56:23.314Z,33
2018-07-16T08:57:25.498Z,33
2018-07-16T08:58:27.672Z,33
2018-07-16T08:59:29.856Z,33
2018-07-16T09:00:31.767Z,33
2018-07-16T09:01:33.929Z,33
2018-07-16T09:02:36.382Z,33
2018-07-16T09:03:38.563Z,32.9
2018-07-16T09:04:40.455Z,32.9
2018-07-16T09:05:42.634Z,33
2018-07-16T09:06:44.520Z,33
2018-07-16T09:07:46.413Z,32.9
2018-07-16T09:08:48.849Z,32.9
2018-07-16T09:09:51.341Z,33.1
2018-07-16T09:10:53.755Z,33
2018-07-16T09:11:56.097Z,33.1
2018-07-16T09:12:57.980Z,33
2018-07-16T09:14:00.419Z,33
2018-07-16T09:15:02.079Z,33
2018-07-16T09:16:03.972Z,32.9
2018-07-16T09:17:06.415Z,33
2018-07-16T09:18:08.336Z,33
2018-07-16T09:19:10.541Z,33
2018-07-16T09:20:12.961Z,33.1
2018-07-16T09:21:15.151Z,33.1
2018-07-16T09:22:17.598Z,33.1
2018-07-16T09:23:20.078Z,32.9
2018-07-16T09:24:22.533Z,33
2018-07-16T09:25:24.473Z,32.9
2018-07-16T09:26:27.149Z,33
2018-07-16T09:27:29.602Z,33
2018-07-16T09:28:31.782Z,32.9
2018-07-16T09:29:34.228Z,33
2018-07-16T09:30:36.152Z,33
2018-07-16T09:31:38.055Z,33.1
2018-07-16T09:32:40.528Z,33
2018-07-16T09:33:43.257Z,32.9
2018-07-16T09:34:45.439Z,33
2018-07-16T09:35:47.618Z,33
2018-07-16T09:36:50.062Z,33
2018-07-16T09:37:52.519Z,33
2018-07-16T09:38:55.092Z,32.9
2018-07-16T09:39:57.441Z,32.9
2018-07-16T09:40:59.900Z,33
2018-07-16T09:42:02.334Z,33
2018-07-16T09:43:04.987Z,33
2018-07-16T09:44:06.960Z,33.1
2018-07-16T09:45:08.844Z,33
2018-07-16T09:46:11.288Z,33
2018-07-16T09:47:13.169Z,32.9
2018-07-16T09:48:15.623Z,33.1
2018-07-16T09:49:18.068Z,33.1
2018-07-16T09:50:20.525Z,32.9
2018-07-16T09:51:22.707Z,32.9
2018-07-16T09:52:24.329Z,33.1
2018-07-16T09:53:26.223Z,32.9
2018-07-16T09:54:28.689Z,33.1
2018-07-16T09:55:30.888Z,33.1
2018-07-16T09:56:33.203Z,33
2018-07-16T09:57:35.352Z,32.8
2018-07-16T09:58:37.498Z,33
2018-07-16T09:59:39.948Z,33.1
2018-07-16T10:00:42.131Z,33
2018-07-16T10:01:44.037Z,33
2018-07-16T10:02:45.650Z,32.9
2018-07-16T10:03:47.537Z,32.9
2018-07-16T10:04:49.984Z,32.9
2018-07-16T10:05:51.889Z,33.1
2018-07-16T10:06:54.345Z,32.9
2018-07-16T10:07:56.527Z,32.9
2018-07-16T10:08:59.052Z,32.9
2018-07-16T10:10:01.496Z,32.8
2018-07-16T10:11:03.676Z,33
2018-07-16T10:12:05.982Z,33
2018-07-16T10:13:08.169Z,32.9
2018-07-16T10:14:10.624Z,32.9
2018-07-16T10:15:13.073Z,33
2018-07-16T10:16:14.964Z,32.9
2018-07-16T10:17:17.139Z,33
2018-07-16T10:18:19.072Z,32.9
2018-07-16T10:19:21.248Z,33
2018-07-16T10:20:23.602Z,32.9
2018-07-16T10:21:25.892Z,32.9
2018-07-16T10:22:28.328Z,32.9
2018-07-16T10:23:30.780Z,32.9
2018-07-16T10:24:33.227Z,33
2018-07-16T10:25:35.680Z,32.9
2018-07-16T10:26:37.858Z,32.9
2018-07-16T10:27:40.316Z,32.9
2018-07-16T10:28:42.760Z,32.9
2018-07-16T10:29:44.662Z,32.9
2018-07-16T10:30:46.295Z,33
2018-07-16T10:31:48.753Z,32.9
2018-07-16T10:32:50.929Z,33
2018-07-16T10:33:52.956Z,33
2018-07-16T10:34:55.218Z,33
2018-07-16T10:35:57.109Z,33
2018-07-16T10:36:58.996Z,33
2018-07-16T10:38:01.169Z,32.9
2018-07-16T10:39:03.623Z,32.9
2018-07-16T10:40:05.540Z,32.9
2018-07-16T10:41:07.690Z,33
2018-07-16T10:42:10.143Z,32.9
2018-07-16T10:43:12.638Z,32.9
2018-07-16T10:44:14.788Z,32.9
2018-07-16T10:45:16.969Z,32.8
2018-07-16T10:46:19.428Z,32.8
2018-07-16T10:47:21.619Z,33
2018-07-16T10:48:23.783Z,32.9
2018-07-16T10:49:25.939Z,32.9
2018-07-16T10:50:28.396Z,32.8
2018-07-16T10:51:30.572Z,33
2018-07-16T10:52:32.749Z,32.8
2018-07-16T10:53:35.196Z,32.8
2018-07-16T10:54:37.383Z,32.9
2018-07-16T10:55:39.591Z,32.9
2018-07-16T10:56:42.038Z,32.9
2018-07-16T10:57:44.220Z,32.9
2018-07-16T10:58:46.657Z,32.9
2018-07-16T10:59:49.099Z,33
2018-07-16T11:00:51.557Z,32.9
2018-07-16T11:01:54.070Z,32.8
2018-07-16T11:02:56.410Z,33
2018-07-16T11:03:59.002Z,32.9
2018-07-16T11:05:01.438Z,32.9
2018-07-16T11:06:03.358Z,32.9
2018-07-16T11:07:05.528Z,32.9
2018-07-16T11:08:07.976Z,32.9
2018-07-16T11:09:10.157Z,32.9
2018-07-16T11:10:12.074Z,32.9
2018-07-16T11:11:14.518Z,32.9
2018-07-16T11:12:16.767Z,33
2018-07-16T11:13:19.220Z,33
2018-07-16T11:14:21.095Z,32.9
2018-07-16T11:15:23.557Z,33
2018-07-16T11:16:25.745Z,32.9
2018-07-16T11:17:28.194Z,32.9
2018-07-16T11:18:30.648Z,33
2018-07-16T11:19:32.541Z,32.8
2018-07-16T11:20:34.724Z,33
2018-07-16T11:21:36.898Z,32.8
2018-07-16T11:22:38.518Z,33
2018-07-16T11:23:40.418Z,32.9
2018-07-16T11:24:42.856Z,32.9
2018-07-16T11:25:44.764Z,32.9
2018-07-16T11:26:46.669Z,32.9
2018-07-16T11:27:49.109Z,33
2018-07-16T11:28:51.281Z,32.9
2018-07-16T11:29:53.732Z,33
2018-07-16T11:30:55.355Z,33
2018-07-16T11:31:57.820Z,33
2018-07-16T11:33:00.021Z,32.9
2018-07-16T11:34:01.908Z,32.9
2018-07-16T11:35:04.105Z,33
2018-07-16T11:36:06.561Z,33
2018-07-16T11:37:08.739Z,33
2018-07-16T11:38:10.918Z,32.9
2018-07-16T11:39:12.521Z,33
2018-07-16T11:40:14.968Z,32.9
2018-07-16T11:41:17.142Z,32.9
2018-07-16T11:42:19.594Z,33
2018-07-16T11:43:21.777Z,32.9
2018-07-16T11:44:23.965Z,33
2018-07-16T11:45:25.852Z,33.1
2018-07-16T11:46:27.996Z,32.9
2018-07-16T11:47:29.618Z,33
2018-07-16T11:48:32.078Z,32.9
2018-07-16T11:49:34.304Z,32.9
2018-07-16T11:50:36.479Z,33
2018-07-16T11:51:38.657Z,33.1
2018-07-16T11:52:40.834Z,32.9
2018-07-16T11:53:43.030Z,33
2018-07-16T11:54:45.477Z,33
2018-07-16T11:55:47.658Z,33.1
2018-07-16T11:56:49.549Z,33
2018-07-16T11:57:51.721Z,33
2018-07-16T11:58:54.256Z,33
2018-07-16T11:59:56.877Z,33.1
2018-07-16T12:00:59.067Z,33
2018-07-16T12:02:01.267Z,32.9
2018-07-16T12:03:03.726Z,33
2018-07-16T12:04:06.177Z,33
2018-07-16T12:05:08.691Z,33
2018-07-16T12:06:11.329Z,33.1
2018-07-16T12:07:13.257Z,33.2
2018-07-16T12:08:15.708Z,33.1
2018-07-16T12:09:18.158Z,33
2018-07-16T12:10:20.339Z,33.1
2018-07-16T12:11:22.800Z,33
2018-07-16T12:12:25.284Z,33
2018-07-16T12:13:27.283Z,33.1
2018-07-16T12:14:29.718Z,33
2018-07-16T12:15:31.612Z,33.1
2018-07-16T12:16:33.497Z,33
2018-07-16T12:17:35.955Z,33
2018-07-16T12:18:38.139Z,33.1
2018-07-16T12:19:40.586Z,33.1
2018-07-16T12:20:42.500Z,33
2018-07-16T12:21:44.939Z,33.1
2018-07-16T12:22:47.108Z,33.1
2018-07-16T12:23:49.013Z,33.2
2018-07-16T12:24:51.202Z,33.1
2018-07-16T12:25:53.566Z,33.1
2018-07-16T12:26:56.118Z,33
2018-07-16T12:27:58.270Z,33
2018-07-16T12:29:00.719Z,33
2018-07-16T12:30:02.896Z,33.1
2018-07-16T12:31:05.061Z,33.1
2018-07-16T12:32:07.514Z,33.1
2018-07-16T12:33:09.682Z,32.9
2018-07-16T12:34:12.129Z,33
2018-07-16T12:35:14.307Z,32.9
2018-07-16T12:36:16.753Z,33
2018-07-16T12:37:18.909Z,33.1
2018-07-16T12:38:21.076Z,32.9
2018-07-16T12:39:22.958Z,33
2018-07-16T12:40:25.139Z,33
2018-07-16T12:41:26.804Z,33.1
2018-07-16T12:42:29.185Z,33.1
2018-07-16T12:43:31.656Z,33
2018-07-16T12:44:34.104Z,33
2018-07-16T12:45:36.562Z,33
2018-07-16T12:46:39.029Z,33.1
2018-07-16T12:47:41.475Z,32.9
2018-07-16T12:48:43.665Z,33
2018-07-16T12:49:46.114Z,33
2018-07-16T12:50:48.285Z,32.9
2018-07-16T12:51:50.468Z,33
2018-07-16T12:52:52.662Z,33.1
2018-07-16T12:53:55.116Z,32.9
2018-07-16T12:54:57.563Z,33
2018-07-16T12:55:59.731Z,33
2018-07-16T12:57:01.942Z,33.1
2018-07-16T12:58:03.867Z,33
2018-07-16T12:59:06.325Z,33
2018-07-16T13:00:08.229Z,33
2018-07-16T13:01:10.419Z,32.9
2018-07-16T13:02:12.877Z,33
2018-07-16T13:03:15.048Z,33
2018-07-16T13:04:17.245Z,33
2018-07-16T13:05:19.140Z,33.1
2018-07-16T13:06:21.605Z,32.9
2018-07-16T13:07:23.778Z,33
2018-07-16T13:08:25.954Z,32.9
2018-07-16T13:09:28.387Z,33.1
2018-07-16T13:10:30.842Z,33
2018-07-16T13:11:33.012Z,33
2018-07-16T13:12:35.465Z,33.1
2018-07-16T13:13:37.904Z,33
2018-07-16T13:14:40.093Z,32.9
2018-07-16T13:15:41.446Z,33
2018-07-16T13:16:43.633Z,33.1
2018-07-16T13:17:46.077Z,33
2018-07-16T13:18:48.541Z,33.1
2018-07-16T13:19:50.730Z,33
2018-07-16T13:20:53.179Z,33.1
2018-07-16T13:21:55.225Z,33
2018-07-16T13:22:57.754Z,33.1
2018-07-16T13:23:59.646Z,33
2018-07-16T13:25:02.087Z,33
2018-07-16T13:26:03.980Z,33.1
2018-07-16T13:27:06.427Z,33
2018-07-16T13:28:08.625Z,33
2018-07-16T13:29:11.079Z,33.1
2018-07-16T13:30:13.231Z,33
2018-07-16T13:31:15.680Z,33
2018-07-16T13:32:17.861Z,33.1
2018-07-16T13:33:20.043Z,32.9
2018-07-16T13:34:22.508Z,33.1
2018-07-16T13:35:24.957Z,33.1
2018-07-16T13:36:27.140Z,33
2018-07-16T13:37:29.596Z,33.1
2018-07-16T13:38:31.197Z,33
2018-07-16T13:39:33.343Z,33.1
2018-07-16T13:40:35.540Z,33.1
2018-07-16T13:41:37.985Z,33
2018-07-16T13:42:40.439Z,33
2018-07-16T13:43:42.322Z,33
2018-07-16T13:44:44.779Z,33.1
2018-07-16T13:45:46.930Z,33.1
2018-07-16T13:46:49.580Z,33
2018-07-16T13:47:51.799Z,33.1
2018-07-16T13:48:53.967Z,33.1
2018-07-16T13:49:56.426Z,33
2018-07-16T13:50:58.887Z,33
2018-07-16T13:52:00.792Z,33.1
2018-07-16T13:53:02.983Z,33
2018-07-16T13:54:05.164Z,33.1
2018-07-16T13:55:07.612Z,33.1
2018-07-16T13:56:10.072Z,33
2018-07-16T13:57:12.261Z,33
2018-07-16T13:58:14.714Z,33.1
2018-07-16T13:59:16.343Z,33.1
2018-07-16T14:00:18.242Z,33.1
2018-07-16T14:01:20.699Z,33
2018-07-16T14:02:22.865Z,33
2018-07-16T14:03:25.033Z,33
2018-07-16T14:04:27.489Z,33
2018-07-16T14:05:29.405Z,33
2018-07-16T14:06:31.868Z,32.9
2018-07-16T14:07:33.773Z,33.2